sensor_id;sensor_type;location;lat;lon;timestamp;temperature;humidity
74809;DHT22;63338;39.544;2.596;2022-11-15T00:00:08;20.60;89.90
74809;DHT22;63338;39.544;2.596;2022-11-15T00:02:35;20.60;90.10
74809;DHT22;63338;39.544;2.596;2022-11-15T00:05:04;20.60;89.90
74809;DHT22;63338;39.544;2.596;2022-11-15T00:07:30;20.70;90.00
74809;DHT22;63338;39.544;2.596;2022-11-15T00:09:56;20.70;89.80
74809;DHT22;63338;39.544;2.596;2022-11-15T00:12:27;20.60;89.80
74809;DHT22;63338;39.544;2.596;2022-11-15T00:14:56;20.70;89.70
74809;DHT22;63338;39.544;2.596;2022-11-15T00:17:22;20.70;90.10
74809;DHT22;63338;39.544;2.596;2022-11-15T00:19:48;20.70;89.90
74809;DHT22;63338;39.544;2.596;2022-11-15T00:22:15;20.70;89.70
74809;DHT22;63338;39.544;2.596;2022-11-15T00:24:42;20.70;89.80
74809;DHT22;63338;39.544;2.596;2022-11-15T00:27:08;20.70;89.80
74809;DHT22;63338;39.544;2.596;2022-11-15T00:29:37;20.70;89.70
74809;DHT22;63338;39.544;2.596;2022-11-15T00:32:07;20.60;89.60
74809;DHT22;63338;39.544;2.596;2022-11-15T00:34:33;20.70;89.80
74809;DHT22;63338;39.544;2.596;2022-11-15T00:36:59;20.70;89.70
74809;DHT22;63338;39.544;2.596;2022-11-15T00:39:25;20.70;89.70
74809;DHT22;63338;39.544;2.596;2022-11-15T00:41:51;20.80;89.50
74809;DHT22;63338;39.544;2.596;2022-11-15T00:44:18;20.80;89.70
74809;DHT22;63338;39.544;2.596;2022-11-15T00:46:44;20.70;89.80
74809;DHT22;63338;39.544;2.596;2022-11-15T00:49:10;20.80;89.80
74809;DHT22;63338;39.544;2.596;2022-11-15T00:51:38;20.80;89.70
74809;DHT22;63338;39.544;2.596;2022-11-15T00:54:04;20.80;89.70
74809;DHT22;63338;39.544;2.596;2022-11-15T00:56:30;20.80;89.70
74809;DHT22;63338;39.544;2.596;2022-11-15T00:58:56;20.70;89.80
74809;DHT22;63338;39.544;2.596;2022-11-15T01:01:23;20.70;89.90
74809;DHT22;63338;39.544;2.596;2022-11-15T01:03:49;20.70;90.00
74809;DHT22;63338;39.544;2.596;2022-11-15T01:06:15;20.70;89.90
74809;DHT22;63338;39.544;2.596;2022-11-15T01:08:41;20.70;90.00
74809;DHT22;63338;39.544;2.596;2022-11-15T01:11:12;20.60;90.30
74809;DHT22;63338;39.544;2.596;2022-11-15T01:13:39;20.70;90.40
74809;DHT22;63338;39.544;2.596;2022-11-15T01:16:11;20.60;90.60
74809;DHT22;63338;39.544;2.596;2022-11-15T01:18:40;20.60;90.70
74809;DHT22;63338;39.544;2.596;2022-11-15T01:21:11;20.60;90.80
74809;DHT22;63338;39.544;2.596;2022-11-15T01:23:38;20.60;90.80
74809;DHT22;63338;39.544;2.596;2022-11-15T01:26:12;20.60;91.00
74809;DHT22;63338;39.544;2.596;2022-11-15T01:28:40;20.60;90.80
74809;DHT22;63338;39.544;2.596;2022-11-15T01:31:10;20.50;91.20
74809;DHT22;63338;39.544;2.596;2022-11-15T01:33:40;20.50;91.40
74809;DHT22;63338;39.544;2.596;2022-11-15T01:36:27;20.50;91.10
74809;DHT22;63338;39.544;2.596;2022-11-15T01:38:54;20.50;91.20
74809;DHT22;63338;39.544;2.596;2022-11-15T01:41:24;20.60;91.30
74809;DHT22;63338;39.544;2.596;2022-11-15T01:46:55;20.60;91.20
74809;DHT22;63338;39.544;2.596;2022-11-15T01:49:24;20.70;91.10
74809;DHT22;63338;39.544;2.596;2022-11-15T01:51:55;20.60;91.10
74809;DHT22;63338;39.544;2.596;2022-11-15T01:54:25;20.60;91.00
74809;DHT22;63338;39.544;2.596;2022-11-15T01:56:58;20.50;91.00
74809;DHT22;63338;39.544;2.596;2022-11-15T01:59:25;20.60;91.00
74809;DHT22;63338;39.544;2.596;2022-11-15T02:01:52;20.60;91.10
74809;DHT22;63338;39.544;2.596;2022-11-15T02:04:31;20.60;91.00
74809;DHT22;63338;39.544;2.596;2022-11-15T02:07:03;20.50;91.10
74809;DHT22;63338;39.544;2.596;2022-11-15T02:09:30;20.50;91.10
74809;DHT22;63338;39.544;2.596;2022-11-15T02:11:56;20.40;91.00
74809;DHT22;63338;39.544;2.596;2022-11-15T02:14:25;20.40;90.90
74809;DHT22;63338;39.544;2.596;2022-11-15T02:20:39;20.40;91.00
74809;DHT22;63338;39.544;2.596;2022-11-15T02:28:50;20.20;91.40
74809;DHT22;63338;39.544;2.596;2022-11-15T02:36:33;20.10;91.30
74809;DHT22;63338;39.544;2.596;2022-11-15T02:41:55;20.20;91.30
74809;DHT22;63338;39.544;2.596;2022-11-15T02:44:39;20.20;91.60
74809;DHT22;63338;39.544;2.596;2022-11-15T02:47:10;20.20;91.60
74809;DHT22;63338;39.544;2.596;2022-11-15T02:49:49;20.10;91.60
74809;DHT22;63338;39.544;2.596;2022-11-15T02:52:23;20.10;91.70
74809;DHT22;63338;39.544;2.596;2022-11-15T02:55:00;20.10;91.50
74809;DHT22;63338;39.544;2.596;2022-11-15T03:00:17;20.20;91.70
74809;DHT22;63338;39.544;2.596;2022-11-15T03:02:57;20.10;91.70
74809;DHT22;63338;39.544;2.596;2022-11-15T03:05:44;20.10;91.70
74809;DHT22;63338;39.544;2.596;2022-11-15T03:08:16;20.10;91.60
74809;DHT22;63338;39.544;2.596;2022-11-15T03:11:08;20.10;91.50
74809;DHT22;63338;39.544;2.596;2022-11-15T03:21:58;20.10;91.70
74809;DHT22;63338;39.544;2.596;2022-11-15T03:24:28;20.00;91.70
74809;DHT22;63338;39.544;2.596;2022-11-15T03:26:57;20.00;91.70
74809;DHT22;63338;39.544;2.596;2022-11-15T03:29:29;19.90;91.80
74809;DHT22;63338;39.544;2.596;2022-11-15T03:32:04;19.90;91.70
74809;DHT22;63338;39.544;2.596;2022-11-15T03:34:53;19.90;91.60
74809;DHT22;63338;39.544;2.596;2022-11-15T03:40:42;19.80;91.80
74809;DHT22;63338;39.544;2.596;2022-11-15T03:43:11;19.80;91.70
74809;DHT22;63338;39.544;2.596;2022-11-15T03:46:02;19.70;91.60
74809;DHT22;63338;39.544;2.596;2022-11-15T03:48:35;19.70;91.80
74809;DHT22;63338;39.544;2.596;2022-11-15T03:51:04;19.60;91.80
74809;DHT22;63338;39.544;2.596;2022-11-15T03:53:33;19.70;91.70
74809;DHT22;63338;39.544;2.596;2022-11-15T03:56:05;19.70;91.60
74809;DHT22;63338;39.544;2.596;2022-11-15T03:58:31;19.70;91.70
74809;DHT22;63338;39.544;2.596;2022-11-15T04:01:00;19.60;91.80
74809;DHT22;63338;39.544;2.596;2022-11-15T04:03:26;19.60;91.80
74809;DHT22;63338;39.544;2.596;2022-11-15T04:05:52;19.70;91.70
74809;DHT22;63338;39.544;2.596;2022-11-15T04:08:21;19.70;91.90
74809;DHT22;63338;39.544;2.596;2022-11-15T04:10:49;19.70;91.80
74809;DHT22;63338;39.544;2.596;2022-11-15T04:13:19;19.70;91.90
74809;DHT22;63338;39.544;2.596;2022-11-15T04:15:45;19.60;91.80
74809;DHT22;63338;39.544;2.596;2022-11-15T04:18:14;19.70;91.80
74809;DHT22;63338;39.544;2.596;2022-11-15T04:20:43;19.60;91.80
74809;DHT22;63338;39.544;2.596;2022-11-15T04:23:27;19.60;91.80
74809;DHT22;63338;39.544;2.596;2022-11-15T04:26:15;19.50;91.90
74809;DHT22;63338;39.544;2.596;2022-11-15T04:28:42;19.50;92.10
74809;DHT22;63338;39.544;2.596;2022-11-15T04:31:27;19.60;92.00
74809;DHT22;63338;39.544;2.596;2022-11-15T04:33:53;19.50;92.30
74809;DHT22;63338;39.544;2.596;2022-11-15T04:36:19;19.60;92.00
74809;DHT22;63338;39.544;2.596;2022-11-15T04:39:12;19.50;92.30
74809;DHT22;63338;39.544;2.596;2022-11-15T04:41:41;19.60;92.10
74809;DHT22;63338;39.544;2.596;2022-11-15T04:44:10;19.50;92.10
74809;DHT22;63338;39.544;2.596;2022-11-15T04:46:36;19.60;91.90
74809;DHT22;63338;39.544;2.596;2022-11-15T04:49:08;19.60;91.90
74809;DHT22;63338;39.544;2.596;2022-11-15T04:51:34;19.60;91.80
74809;DHT22;63338;39.544;2.596;2022-11-15T04:54:00;19.60;91.80
74809;DHT22;63338;39.544;2.596;2022-11-15T04:56:33;19.60;91.40
74809;DHT22;63338;39.544;2.596;2022-11-15T04:58:59;19.60;91.20
74809;DHT22;63338;39.544;2.596;2022-11-15T05:01:25;19.60;91.00
74809;DHT22;63338;39.544;2.596;2022-11-15T05:03:51;19.50;91.10
74809;DHT22;63338;39.544;2.596;2022-11-15T05:06:36;19.60;90.80
74809;DHT22;63338;39.544;2.596;2022-11-15T05:09:03;19.60;90.90
74809;DHT22;63338;39.544;2.596;2022-11-15T05:11:32;19.60;90.60
74809;DHT22;63338;39.544;2.596;2022-11-15T05:14:01;19.60;90.50
74809;DHT22;63338;39.544;2.596;2022-11-15T05:16:27;19.60;90.50
74809;DHT22;63338;39.544;2.596;2022-11-15T05:18:56;19.60;90.50
74809;DHT22;63338;39.544;2.596;2022-11-15T05:21:22;19.60;90.40
74809;DHT22;63338;39.544;2.596;2022-11-15T05:23:49;19.60;90.30
74809;DHT22;63338;39.544;2.596;2022-11-15T05:26:16;19.60;90.60
74809;DHT22;63338;39.544;2.596;2022-11-15T05:28:46;19.60;90.60
74809;DHT22;63338;39.544;2.596;2022-11-15T05:31:14;19.60;90.70
74809;DHT22;63338;39.544;2.596;2022-11-15T05:33:42;19.70;90.50
74809;DHT22;63338;39.544;2.596;2022-11-15T05:36:31;19.60;90.60
74809;DHT22;63338;39.544;2.596;2022-11-15T05:38:59;19.70;90.50
74809;DHT22;63338;39.544;2.596;2022-11-15T05:41:49;19.70;90.60
74809;DHT22;63338;39.544;2.596;2022-11-15T05:44:18;19.70;90.70
74809;DHT22;63338;39.544;2.596;2022-11-15T05:46:50;19.60;90.60
74809;DHT22;63338;39.544;2.596;2022-11-15T05:49:21;19.60;90.60
74809;DHT22;63338;39.544;2.596;2022-11-15T05:51:49;19.60;90.50
74809;DHT22;63338;39.544;2.596;2022-11-15T05:54:20;19.50;90.70
74809;DHT22;63338;39.544;2.596;2022-11-15T05:56:49;19.60;90.50
74809;DHT22;63338;39.544;2.596;2022-11-15T05:59:16;19.60;90.50
74809;DHT22;63338;39.544;2.596;2022-11-15T06:01:43;19.60;90.30
74809;DHT22;63338;39.544;2.596;2022-11-15T06:04:11;19.60;90.10
74809;DHT22;63338;39.544;2.596;2022-11-15T06:06:40;19.60;89.90
74809;DHT22;63338;39.544;2.596;2022-11-15T06:09:06;19.60;89.50
74809;DHT22;63338;39.544;2.596;2022-11-15T06:11:32;19.50;89.10
74809;DHT22;63338;39.544;2.596;2022-11-15T06:13:59;19.60;88.90
74809;DHT22;63338;39.544;2.596;2022-11-15T06:16:25;19.60;89.00
74809;DHT22;63338;39.544;2.596;2022-11-15T06:18:54;19.60;89.20
74809;DHT22;63338;39.544;2.596;2022-11-15T06:21:25;19.60;89.10
74809;DHT22;63338;39.544;2.596;2022-11-15T06:23:56;19.60;89.40
74809;DHT22;63338;39.544;2.596;2022-11-15T06:26:23;19.60;89.30
74809;DHT22;63338;39.544;2.596;2022-11-15T06:28:49;19.60;89.50
74809;DHT22;63338;39.544;2.596;2022-11-15T06:31:15;19.50;89.70
74809;DHT22;63338;39.544;2.596;2022-11-15T06:33:44;19.50;90.10
74809;DHT22;63338;39.544;2.596;2022-11-15T06:36:12;19.50;89.90
74809;DHT22;63338;39.544;2.596;2022-11-15T06:38:44;19.50;90.00
74809;DHT22;63338;39.544;2.596;2022-11-15T06:41:11;19.50;90.30
74809;DHT22;63338;39.544;2.596;2022-11-15T06:43:38;19.50;90.10
74809;DHT22;63338;39.544;2.596;2022-11-15T06:46:06;19.40;90.10
74809;DHT22;63338;39.544;2.596;2022-11-15T06:48:35;19.40;90.50
74809;DHT22;63338;39.544;2.596;2022-11-15T06:51:05;19.40;90.60
74809;DHT22;63338;39.544;2.596;2022-11-15T06:53:31;19.40;90.50
74809;DHT22;63338;39.544;2.596;2022-11-15T06:56:03;19.40;90.60
74809;DHT22;63338;39.544;2.596;2022-11-15T06:58:30;19.30;90.50
74809;DHT22;63338;39.544;2.596;2022-11-15T07:01:00;19.40;90.90
74809;DHT22;63338;39.544;2.596;2022-11-15T07:03:27;19.40;90.50
74809;DHT22;63338;39.544;2.596;2022-11-15T07:05:55;19.40;90.70
74809;DHT22;63338;39.544;2.596;2022-11-15T07:08:26;19.40;90.50
74809;DHT22;63338;39.544;2.596;2022-11-15T07:10:52;19.40;90.50
74809;DHT22;63338;39.544;2.596;2022-11-15T07:13:18;19.50;90.20
74809;DHT22;63338;39.544;2.596;2022-11-15T07:15:45;19.50;89.90
74809;DHT22;63338;39.544;2.596;2022-11-15T07:18:11;19.60;89.60
74809;DHT22;63338;39.544;2.596;2022-11-15T07:20:40;19.70;89.30
74809;DHT22;63338;39.544;2.596;2022-11-15T07:23:06;19.80;89.20
74809;DHT22;63338;39.544;2.596;2022-11-15T07:25:35;19.80;88.80
74809;DHT22;63338;39.544;2.596;2022-11-15T07:28:02;19.80;88.70
74809;DHT22;63338;39.544;2.596;2022-11-15T07:30:29;19.90;88.10
74809;DHT22;63338;39.544;2.596;2022-11-15T07:33:23;20.00;87.70
74809;DHT22;63338;39.544;2.596;2022-11-15T07:35:59;20.10;87.40
74809;DHT22;63338;39.544;2.596;2022-11-15T07:38:28;20.30;87.10
74809;DHT22;63338;39.544;2.596;2022-11-15T07:40:58;20.30;86.70
74809;DHT22;63338;39.544;2.596;2022-11-15T07:43:25;20.40;86.10
74809;DHT22;63338;39.544;2.596;2022-11-15T07:46:05;20.40;85.50
74809;DHT22;63338;39.544;2.596;2022-11-15T07:48:37;20.50;85.30
74809;DHT22;63338;39.544;2.596;2022-11-15T07:51:06;20.60;85.10
74809;DHT22;63338;39.544;2.596;2022-11-15T07:53:35;20.70;84.80
74809;DHT22;63338;39.544;2.596;2022-11-15T07:56:01;20.70;84.30
74809;DHT22;63338;39.544;2.596;2022-11-15T07:58:28;20.80;83.80
74809;DHT22;63338;39.544;2.596;2022-11-15T08:00:56;21.00;82.10
74809;DHT22;63338;39.544;2.596;2022-11-15T08:03:22;21.10;82.00
74809;DHT22;63338;39.544;2.596;2022-11-15T08:05:52;21.30;81.70
74809;DHT22;63338;39.544;2.596;2022-11-15T08:08:18;21.40;81.50
74809;DHT22;63338;39.544;2.596;2022-11-15T08:10:44;21.50;81.50
74809;DHT22;63338;39.544;2.596;2022-11-15T08:13:12;21.60;81.40
74809;DHT22;63338;39.544;2.596;2022-11-15T08:15:45;21.60;81.30
74809;DHT22;63338;39.544;2.596;2022-11-15T08:18:15;21.80;81.00
74809;DHT22;63338;39.544;2.596;2022-11-15T08:20:52;22.00;80.00
74809;DHT22;63338;39.544;2.596;2022-11-15T08:23:22;22.10;79.30
74809;DHT22;63338;39.544;2.596;2022-11-15T08:26:10;22.40;79.00
74809;DHT22;63338;39.544;2.596;2022-11-15T08:28:37;22.70;77.60
74809;DHT22;63338;39.544;2.596;2022-11-15T08:31:06;23.00;77.20
74809;DHT22;63338;39.544;2.596;2022-11-15T08:33:33;23.30;76.10
74809;DHT22;63338;39.544;2.596;2022-11-15T08:36:02;23.60;74.60
74809;DHT22;63338;39.544;2.596;2022-11-15T08:38:34;24.00;72.60
74809;DHT22;63338;39.544;2.596;2022-11-15T08:41:04;24.40;71.90
74809;DHT22;63338;39.544;2.596;2022-11-15T08:43:40;24.80;71.40
74809;DHT22;63338;39.544;2.596;2022-11-15T08:46:10;25.20;70.00
74809;DHT22;63338;39.544;2.596;2022-11-15T08:48:41;25.70;69.30
74809;DHT22;63338;39.544;2.596;2022-11-15T08:51:15;25.60;69.70
74809;DHT22;63338;39.544;2.596;2022-11-15T08:53:42;25.60;70.50
74809;DHT22;63338;39.544;2.596;2022-11-15T08:56:10;25.70;71.00
74809;DHT22;63338;39.544;2.596;2022-11-15T08:59:11;25.90;71.10
74809;DHT22;63338;39.544;2.596;2022-11-15T09:02:13;26.10;71.70
74809;DHT22;63338;39.544;2.596;2022-11-15T09:04:41;26.10;71.00
74809;DHT22;63338;39.544;2.596;2022-11-15T09:07:11;25.70;71.50
74809;DHT22;63338;39.544;2.596;2022-11-15T09:09:57;25.10;72.60
74809;DHT22;63338;39.544;2.596;2022-11-15T09:13:06;24.60;73.90
74809;DHT22;63338;39.544;2.596;2022-11-15T09:16:05;24.20;73.70
74809;DHT22;63338;39.544;2.596;2022-11-15T09:21:38;23.80;75.90
74809;DHT22;63338;39.544;2.596;2022-11-15T09:24:10;24.20;76.30
74809;DHT22;63338;39.544;2.596;2022-11-15T09:27:00;24.60;75.00
74809;DHT22;63338;39.544;2.596;2022-11-15T09:29:28;24.50;74.10
74809;DHT22;63338;39.544;2.596;2022-11-15T09:31:58;24.50;74.00
74809;DHT22;63338;39.544;2.596;2022-11-15T09:34:59;24.40;74.20
74809;DHT22;63338;39.544;2.596;2022-11-15T09:37:31;24.60;74.00
74809;DHT22;63338;39.544;2.596;2022-11-15T09:40:07;24.50;73.10
74809;DHT22;63338;39.544;2.596;2022-11-15T09:49:32;24.30;68.90
74809;DHT22;63338;39.544;2.596;2022-11-15T09:52:11;24.20;69.30
74809;DHT22;63338;39.544;2.596;2022-11-15T09:54:47;24.30;68.70
74809;DHT22;63338;39.544;2.596;2022-11-15T09:57:18;24.20;68.20
74809;DHT22;63338;39.544;2.596;2022-11-15T10:05:55;24.10;68.10
74809;DHT22;63338;39.544;2.596;2022-11-15T10:11:19;23.80;68.40
74809;DHT22;63338;39.544;2.596;2022-11-15T10:13:54;23.90;68.50
74809;DHT22;63338;39.544;2.596;2022-11-15T10:25:34;23.80;68.80
74809;DHT22;63338;39.544;2.596;2022-11-15T10:30:40;23.90;69.00
74809;DHT22;63338;39.544;2.596;2022-11-15T10:35:48;23.90;69.30
74809;DHT22;63338;39.544;2.596;2022-11-15T10:38:14;24.10;69.20
74809;DHT22;63338;39.544;2.596;2022-11-15T10:40:43;24.50;68.20
74809;DHT22;63338;39.544;2.596;2022-11-15T10:43:17;24.60;67.60
74809;DHT22;63338;39.544;2.596;2022-11-15T10:45:46;24.70;67.80
74809;DHT22;63338;39.544;2.596;2022-11-15T10:48:22;24.80;69.10
74809;DHT22;63338;39.544;2.596;2022-11-15T10:50:56;25.00;70.40
74809;DHT22;63338;39.544;2.596;2022-11-15T10:56:41;25.90;72.00
74809;DHT22;63338;39.544;2.596;2022-11-15T10:59:29;25.90;72.40
74809;DHT22;63338;39.544;2.596;2022-11-15T11:05:41;25.90;72.60
74809;DHT22;63338;39.544;2.596;2022-11-15T11:08:27;26.20;71.30
74809;DHT22;63338;39.544;2.596;2022-11-15T11:10:56;26.20;71.30
74809;DHT22;63338;39.544;2.596;2022-11-15T11:13:29;26.20;71.00
74809;DHT22;63338;39.544;2.596;2022-11-15T11:16:43;26.20;71.00
74809;DHT22;63338;39.544;2.596;2022-11-15T11:43:12;26.20;68.00
74809;DHT22;63338;39.544;2.596;2022-11-15T11:49:15;25.30;70.10
74809;DHT22;63338;39.544;2.596;2022-11-15T11:58:56;24.70;69.80
74809;DHT22;63338;39.544;2.596;2022-11-15T12:01:45;24.90;70.20
74809;DHT22;63338;39.544;2.596;2022-11-15T12:04:21;25.20;69.40
74809;DHT22;63338;39.544;2.596;2022-11-15T12:09:43;25.40;70.30
74809;DHT22;63338;39.544;2.596;2022-11-15T12:12:13;25.60;68.10
74809;DHT22;63338;39.544;2.596;2022-11-15T12:15:10;25.70;68.70
74809;DHT22;63338;39.544;2.596;2022-11-15T12:17:45;26.00;68.40
74809;DHT22;63338;39.544;2.596;2022-11-15T12:20:27;26.20;68.30
74809;DHT22;63338;39.544;2.596;2022-11-15T12:25:57;26.10;67.40
74809;DHT22;63338;39.544;2.596;2022-11-15T12:28:35;25.90;68.60
74809;DHT22;63338;39.544;2.596;2022-11-15T12:34:03;25.90;69.10
74809;DHT22;63338;39.544;2.596;2022-11-15T12:36:31;25.90;68.50
74809;DHT22;63338;39.544;2.596;2022-11-15T12:39:07;25.80;67.80
74809;DHT22;63338;39.544;2.596;2022-11-15T12:41:39;25.40;68.60
74809;DHT22;63338;39.544;2.596;2022-11-15T12:44:12;25.20;70.00
74809;DHT22;63338;39.544;2.596;2022-11-15T13:02:43;25.90;70.10
74809;DHT22;63338;39.544;2.596;2022-11-15T13:07:57;25.80;70.10
74809;DHT22;63338;39.544;2.596;2022-11-15T13:10:43;25.70;70.10
74809;DHT22;63338;39.544;2.596;2022-11-15T13:13:09;25.70;70.30
74809;DHT22;63338;39.544;2.596;2022-11-15T13:15:59;25.90;68.50
74809;DHT22;63338;39.544;2.596;2022-11-15T13:18:36;26.00;68.40
74809;DHT22;63338;39.544;2.596;2022-11-15T13:21:26;26.10;68.40
74809;DHT22;63338;39.544;2.596;2022-11-15T13:24:22;26.10;68.30
74809;DHT22;63338;39.544;2.596;2022-11-15T13:26:48;25.80;69.70
74809;DHT22;63338;39.544;2.596;2022-11-15T13:29:18;25.40;69.50
74809;DHT22;63338;39.544;2.596;2022-11-15T13:31:46;25.10;70.60
74809;DHT22;63338;39.544;2.596;2022-11-15T13:34:34;24.90;69.80
74809;DHT22;63338;39.544;2.596;2022-11-15T13:37:12;24.60;68.10
74809;DHT22;63338;39.544;2.596;2022-11-15T13:39:44;24.30;65.80
74809;DHT22;63338;39.544;2.596;2022-11-15T13:42:19;24.20;65.70
74809;DHT22;63338;39.544;2.596;2022-11-15T13:45:00;24.10;65.80
74809;DHT22;63338;39.544;2.596;2022-11-15T13:47:32;24.00;66.20
74809;DHT22;63338;39.544;2.596;2022-11-15T13:50:03;23.80;66.60
74809;DHT22;63338;39.544;2.596;2022-11-15T13:52:37;23.70;67.20
74809;DHT22;63338;39.544;2.596;2022-11-15T13:55:34;23.60;67.90
74809;DHT22;63338;39.544;2.596;2022-11-15T13:58:08;23.60;68.80
74809;DHT22;63338;39.544;2.596;2022-11-15T14:00:41;23.50;69.10
74809;DHT22;63338;39.544;2.596;2022-11-15T14:03:26;23.50;69.20
74809;DHT22;63338;39.544;2.596;2022-11-15T14:06:14;23.50;69.40
74809;DHT22;63338;39.544;2.596;2022-11-15T14:08:57;23.40;69.00
74809;DHT22;63338;39.544;2.596;2022-11-15T14:11:26;23.20;68.80
74809;DHT22;63338;39.544;2.596;2022-11-15T14:14:17;23.20;68.80
74809;DHT22;63338;39.544;2.596;2022-11-15T14:16:53;23.20;68.30
74809;DHT22;63338;39.544;2.596;2022-11-15T14:22:26;23.10;69.20
74809;DHT22;63338;39.544;2.596;2022-11-15T14:25:19;23.10;71.20
74809;DHT22;63338;39.544;2.596;2022-11-15T14:30:54;23.00;75.70
74809;DHT22;63338;39.544;2.596;2022-11-15T14:35:54;23.10;77.40
74809;DHT22;63338;39.544;2.596;2022-11-15T14:38:33;23.10;78.30
74809;DHT22;63338;39.544;2.596;2022-11-15T14:41:24;23.10;78.70
74809;DHT22;63338;39.544;2.596;2022-11-15T14:44:30;23.10;79.00
74809;DHT22;63338;39.544;2.596;2022-11-15T14:47:03;23.10;79.20
74809;DHT22;63338;39.544;2.596;2022-11-15T14:49:42;23.10;79.50
74809;DHT22;63338;39.544;2.596;2022-11-15T14:55:56;23.10;78.90
74809;DHT22;63338;39.544;2.596;2022-11-15T14:58:23;23.10;79.50
74809;DHT22;63338;39.544;2.596;2022-11-15T15:00:54;23.00;79.80
74809;DHT22;63338;39.544;2.596;2022-11-15T15:03:20;23.00;80.10
74809;DHT22;63338;39.544;2.596;2022-11-15T15:05:46;23.00;80.00
74809;DHT22;63338;39.544;2.596;2022-11-15T15:08:17;23.00;80.30
74809;DHT22;63338;39.544;2.596;2022-11-15T15:10:45;22.90;80.50
74809;DHT22;63338;39.544;2.596;2022-11-15T15:13:16;23.00;80.70
74809;DHT22;63338;39.544;2.596;2022-11-15T15:15:44;23.00;80.90
74809;DHT22;63338;39.544;2.596;2022-11-15T15:18:10;23.00;81.00
74809;DHT22;63338;39.544;2.596;2022-11-15T15:20:39;22.80;81.00
74809;DHT22;63338;39.544;2.596;2022-11-15T15:23:17;22.80;81.20
74809;DHT22;63338;39.544;2.596;2022-11-15T15:25:43;22.80;81.50
74809;DHT22;63338;39.544;2.596;2022-11-15T15:28:11;22.60;81.80
74809;DHT22;63338;39.544;2.596;2022-11-15T15:30:47;22.50;82.10
74809;DHT22;63338;39.544;2.596;2022-11-15T15:33:13;22.40;81.70
74809;DHT22;63338;39.544;2.596;2022-11-15T15:35:39;22.40;81.50
74809;DHT22;63338;39.544;2.596;2022-11-15T15:38:06;22.30;81.70
74809;DHT22;63338;39.544;2.596;2022-11-15T15:40:39;22.40;82.40
74809;DHT22;63338;39.544;2.596;2022-11-15T15:43:45;22.30;82.80
74809;DHT22;63338;39.544;2.596;2022-11-15T15:46:16;22.40;83.20
74809;DHT22;63338;39.544;2.596;2022-11-15T15:48:49;22.30;82.90
74809;DHT22;63338;39.544;2.596;2022-11-15T15:51:15;22.30;83.10
74809;DHT22;63338;39.544;2.596;2022-11-15T15:53:42;22.30;83.30
74809;DHT22;63338;39.544;2.596;2022-11-15T15:56:09;22.20;83.50
74809;DHT22;63338;39.544;2.596;2022-11-15T15:58:42;22.20;83.80
74809;DHT22;63338;39.544;2.596;2022-11-15T16:01:08;22.20;83.60
74809;DHT22;63338;39.544;2.596;2022-11-15T16:03:35;22.10;83.70
74809;DHT22;63338;39.544;2.596;2022-11-15T16:06:04;22.20;83.30
74809;DHT22;63338;39.544;2.596;2022-11-15T16:08:36;22.10;83.50
74809;DHT22;63338;39.544;2.596;2022-11-15T16:11:03;22.10;83.60
74809;DHT22;63338;39.544;2.596;2022-11-15T16:13:35;22.00;83.70
74809;DHT22;63338;39.544;2.596;2022-11-15T16:16:12;22.00;84.00
74809;DHT22;63338;39.544;2.596;2022-11-15T16:18:39;22.00;84.10
74809;DHT22;63338;39.544;2.596;2022-11-15T16:21:09;22.00;84.20
74809;DHT22;63338;39.544;2.596;2022-11-15T16:24:02;21.90;84.30
74809;DHT22;63338;39.544;2.596;2022-11-15T16:26:46;21.90;84.10
74809;DHT22;63338;39.544;2.596;2022-11-15T16:33:06;21.80;84.30
74809;DHT22;63338;39.544;2.596;2022-11-15T16:35:36;21.80;84.40
74809;DHT22;63338;39.544;2.596;2022-11-15T16:38:15;21.80;84.40
74809;DHT22;63338;39.544;2.596;2022-11-15T16:40:42;21.80;84.60
74809;DHT22;63338;39.544;2.596;2022-11-15T16:43:12;21.70;84.40
74809;DHT22;63338;39.544;2.596;2022-11-15T16:45:45;21.60;83.40
74809;DHT22;63338;39.544;2.596;2022-11-15T16:48:31;21.60;83.20
74809;DHT22;63338;39.544;2.596;2022-11-15T16:50:59;21.60;83.00
74809;DHT22;63338;39.544;2.596;2022-11-15T16:53:33;21.60;82.70
74809;DHT22;63338;39.544;2.596;2022-11-15T16:56:31;21.50;82.80
74809;DHT22;63338;39.544;2.596;2022-11-15T16:58:58;21.50;82.90
74809;DHT22;63338;39.544;2.596;2022-11-15T17:01:32;21.60;82.50
74809;DHT22;63338;39.544;2.596;2022-11-15T17:04:04;21.40;82.50
74809;DHT22;63338;39.544;2.596;2022-11-15T17:06:45;21.50;82.20
74809;DHT22;63338;39.544;2.596;2022-11-15T17:09:20;21.40;82.30
74809;DHT22;63338;39.544;2.596;2022-11-15T17:11:56;21.40;82.00
74809;DHT22;63338;39.544;2.596;2022-11-15T17:14:25;21.40;81.90
74809;DHT22;63338;39.544;2.596;2022-11-15T17:16:54;21.40;81.90
74809;DHT22;63338;39.544;2.596;2022-11-15T17:19:33;21.40;81.70
74809;DHT22;63338;39.544;2.596;2022-11-15T17:22:04;21.30;81.60
74809;DHT22;63338;39.544;2.596;2022-11-15T17:24:30;21.30;81.30
74809;DHT22;63338;39.544;2.596;2022-11-15T17:26:57;21.30;81.20
74809;DHT22;63338;39.544;2.596;2022-11-15T17:29:35;21.30;81.30
74809;DHT22;63338;39.544;2.596;2022-11-15T17:32:03;21.20;81.20
74809;DHT22;63338;39.544;2.596;2022-11-15T17:34:29;21.30;81.40
74809;DHT22;63338;39.544;2.596;2022-11-15T17:37:00;21.30;81.40
74809;DHT22;63338;39.544;2.596;2022-11-15T17:39:27;21.30;81.30
74809;DHT22;63338;39.544;2.596;2022-11-15T17:42:02;21.40;81.30
74809;DHT22;63338;39.544;2.596;2022-11-15T17:44:41;21.40;81.50
74809;DHT22;63338;39.544;2.596;2022-11-15T17:47:11;21.30;81.70
74809;DHT22;63338;39.544;2.596;2022-11-15T17:49:40;21.30;81.70
74809;DHT22;63338;39.544;2.596;2022-11-15T17:52:06;21.30;82.00
74809;DHT22;63338;39.544;2.596;2022-11-15T17:54:36;21.20;82.10
74809;DHT22;63338;39.544;2.596;2022-11-15T17:57:02;21.30;82.20
74809;DHT22;63338;39.544;2.596;2022-11-15T17:59:29;21.30;82.20
74809;DHT22;63338;39.544;2.596;2022-11-15T18:01:55;21.20;82.20
74809;DHT22;63338;39.544;2.596;2022-11-15T18:04:24;21.30;82.40
74809;DHT22;63338;39.544;2.596;2022-11-15T18:06:53;21.30;82.60
74809;DHT22;63338;39.544;2.596;2022-11-15T18:09:22;21.30;82.70
74809;DHT22;63338;39.544;2.596;2022-11-15T18:11:51;21.30;82.70
74809;DHT22;63338;39.544;2.596;2022-11-15T18:14:19;21.30;82.50
74809;DHT22;63338;39.544;2.596;2022-11-15T18:16:45;21.30;82.60
74809;DHT22;63338;39.544;2.596;2022-11-15T18:19:12;21.40;82.20
74809;DHT22;63338;39.544;2.596;2022-11-15T18:21:40;21.40;82.00
74809;DHT22;63338;39.544;2.596;2022-11-15T18:24:27;21.30;82.00
74809;DHT22;63338;39.544;2.596;2022-11-15T18:26:54;21.40;82.00
74809;DHT22;63338;39.544;2.596;2022-11-15T18:29:20;21.40;82.10
74809;DHT22;63338;39.544;2.596;2022-11-15T18:31:49;21.30;81.90
74809;DHT22;63338;39.544;2.596;2022-11-15T18:34:23;21.30;81.90